sensor_id;sensor_type;location;lat;lon;timestamp;pressure;altitude;pressure_sealevel;temperature;humidity
23899;BME280;20544;50.018;20.010;2023-11-21T00:02:20;97941.52;;;8.26;100.00
23899;BME280;20544;50.018;20.010;2023-11-21T00:05:37;97936.03;;;8.28;100.00
23899;BME280;20544;50.018;20.010;2023-11-21T00:08:55;97954.33;;;8.30;100.00
23899;BME280;20544;50.018;20.010;2023-11-21T00:12:12;97949.24;;;8.28;100.00
23899;BME280;20544;50.018;20.010;2023-11-21T00:15:30;97954.72;;;8.26;100.00
23899;BME280;20544;50.018;20.010;2023-11-21T00:18:47;97947.80;;;8.25;100.00
23899;BME280;20544;50.018;20.010;2023-11-21T00:22:04;97953.27;;;8.24;100.00
23899;BME280;20544;50.018;20.010;2023-11-21T00:25:21;97962.00;;;8.24;100.00
23899;BME280;20544;50.018;20.010;2023-11-21T00:28:38;97971.77;;;8.24;100.00
23899;BME280;20544;50.018;20.010;2023-11-21T00:31:56;97966.03;;;8.20;100.00
23899;BME280;20544;50.018;20.010;2023-11-21T00:35:15;97960.75;;;8.20;100.00
23899;BME280;20544;50.018;20.010;2023-11-21T00:38:32;97967.67;;;8.21;100.00
23899;BME280;20544;50.018;20.010;2023-11-21T00:41:49;97966.67;;;8.22;100.00
23899;BME280;20544;50.018;20.010;2023-11-21T00:45:09;97972.57;;;8.24;100.00
23899;BME280;20544;50.018;20.010;2023-11-21T00:48:26;97973.41;;;8.25;100.00
23899;BME280;20544;50.018;20.010;2023-11-21T00:51:43;97973.02;;;8.28;100.00
23899;BME280;20544;50.018;20.010;2023-11-21T00:58:15;97973.02;;;8.28;100.00
23899;BME280;20544;50.018;20.010;2023-11-21T01:01:32;97961.81;;;8.26;100.00
23899;BME280;20544;50.018;20.010;2023-11-21T01:04:49;97961.81;;;8.26;100.00
23899;BME280;20544;50.018;20.010;2023-11-21T01:08:07;97962.00;;;8.24;100.00
23899;BME280;20544;50.018;20.010;2023-11-21T01:11:24;97963.20;;;8.22;100.00
23899;BME280;20544;50.018;20.010;2023-11-21T01:14:43;97967.03;;;8.19;100.00
23899;BME280;20544;50.018;20.010;2023-11-21T01:18:00;97963.20;;;8.22;100.00
23899;BME280;20544;50.018;20.010;2023-11-21T01:21:18;97968.03;;;8.18;100.00
23899;BME280;20544;50.018;20.010;2023-11-21T01:24:35;97955.77;;;8.10;100.00
23899;BME280;20544;50.018;20.010;2023-11-21T01:27:54;97950.09;;;8.14;100.00
23899;BME280;20544;50.018;20.010;2023-11-21T01:31:11;97962.75;;;8.18;100.00
23899;BME280;20544;50.018;20.010;2023-11-21T01:34:30;97954.77;;;8.12;100.00
23899;BME280;20544;50.018;20.010;2023-11-21T01:37:47;97961.05;;;8.10;100.00
23899;BME280;20544;50.018;20.010;2023-11-21T01:41:04;97958.02;;;8.14;100.00
23899;BME280;20544;50.018;20.010;2023-11-21T01:44:22;97963.69;;;8.10;100.00
23899;BME280;20544;50.018;20.010;2023-11-21T01:47:40;97963.13;;;8.15;100.00
23899;BME280;20544;50.018;20.010;2023-11-21T01:50:57;97965.39;;;8.18;100.00
23899;BME280;20544;50.018;20.010;2023-11-21T01:54:16;97956.66;;;8.18;100.00
23899;BME280;20544;50.018;20.010;2023-11-21T01:57:33;97958.85;;;8.14;100.00
23899;BME280;20544;50.018;20.010;2023-11-21T02:00:53;97955.02;;;8.17;100.00
23899;BME280;20544;50.018;20.010;2023-11-21T02:04:10;97958.11;;;8.20;100.00
23899;BME280;20544;50.018;20.010;2023-11-21T02:07:28;97969.67;;;8.19;100.00
23899;BME280;20544;50.018;20.010;2023-11-21T02:10:45;97958.75;;;8.22;100.00
23899;BME280;20544;50.018;20.010;2023-11-21T02:14:02;97954.82;;;8.18;100.00
23899;BME280;20544;50.018;20.010;2023-11-21T02:17:20;97958.47;;;8.17;100.00
23899;BME280;20544;50.018;20.010;2023-11-21T02:20:37;97954.82;;;8.18;100.00
23899;BME280;20544;50.018;20.010;2023-11-21T02:23:55;97951.18;;;8.19;100.00
23899;BME280;20544;50.018;20.010;2023-11-21T02:27:14;97960.75;;;8.20;100.00
23899;BME280;20544;50.018;20.010;2023-11-21T02:30:33;97964.39;;;8.19;100.00
23899;BME280;20544;50.018;20.010;2023-11-21T02:33:50;97961.30;;;8.16;100.00
23899;BME280;20544;50.018;20.010;2023-11-21T02:37:07;97969.03;;;8.17;100.00
23899;BME280;20544;50.018;20.010;2023-11-21T02:40:25;97967.23;;;8.18;100.00
23899;BME280;20544;50.018;20.010;2023-11-21T02:43:43;97959.49;;;8.16;100.00
23899;BME280;20544;50.018;20.010;2023-11-21T02:47:00;97966.58;;;8.16;100.00
23899;BME280;20544;50.018;20.010;2023-11-21T02:50:18;97965.39;;;8.18;100.00
23899;BME280;20544;50.018;20.010;2023-11-21T02:53:36;97958.47;;;8.17;100.00
23899;BME280;20544;50.018;20.010;2023-11-21T02:56:53;97963.13;;;8.15;100.00
23899;BME280;20544;50.018;20.010;2023-11-21T03:00:12;97969.22;;;8.16;100.00
23899;BME280;20544;50.018;20.010;2023-11-21T03:03:31;97974.89;;;8.13;100.00
23899;BME280;20544;50.018;20.010;2023-11-21T03:06:49;97978.98;;;8.15;100.00
23899;BME280;20544;50.018;20.010;2023-11-21T03:10:08;97971.06;;;8.15;100.00
23899;BME280;20544;50.018;20.010;2023-11-21T03:13:24;97984.72;;;8.19;100.00
23899;BME280;20544;50.018;20.010;2023-11-21T03:16:40;97985.07;;;8.16;100.00
23899;BME280;20544;50.018;20.010;2023-11-21T03:19:57;97984.08;;;8.17;100.00
23899;BME280;20544;50.018;20.010;2023-11-21T03:23:14;97985.72;;;8.18;100.00
23899;BME280;20544;50.018;20.010;2023-11-21T03:26:31;97987.64;;;8.09;100.00
23899;BME280;20544;50.018;20.010;2023-11-21T03:29:48;97987.91;;;8.14;100.00
23899;BME280;20544;50.018;20.010;2023-11-21T03:33:05;97979.79;;;8.16;100.00
23899;BME280;20544;50.018;20.010;2023-11-21T03:36:22;97991.93;;;8.10;100.00
23899;BME280;20544;50.018;20.010;2023-11-21T03:39:39;97990.09;;;8.10;100.00
23899;BME280;20544;50.018;20.010;2023-11-21T03:42:56;97997.76;;;8.05;100.00
23899;BME280;20544;50.018;20.010;2023-11-21T03:46:13;98000.02;;;8.08;100.00
23899;BME280;20544;50.018;20.010;2023-11-21T03:49:31;98004.13;;;7.96;100.00
23899;BME280;20544;50.018;20.010;2023-11-21T03:52:48;97998.56;;;8.06;100.00
23899;BME280;20544;50.018;20.010;2023-11-21T03:56:06;97988.00;;;8.06;100.00
23899;BME280;20544;50.018;20.010;2023-11-21T03:59:24;98000.02;;;8.08;100.00
23899;BME280;20544;50.018;20.010;2023-11-21T04:02:41;98004.48;;;8.08;100.00
23899;BME280;20544;50.018;20.010;2023-11-21T04:05:58;97999.41;;;8.06;100.00
23899;BME280;20544;50.018;20.010;2023-11-21T04:09:15;97998.02;;;8.10;100.00
23899;BME280;20544;50.018;20.010;2023-11-21T04:12:34;98002.49;;;8.10;100.00
23899;BME280;20544;50.018;20.010;2023-11-21T04:15:51;98000.02;;;8.08;100.00
23899;BME280;20544;50.018;20.010;2023-11-21T04:19:08;98003.69;;;8.07;100.00
23899;BME280;20544;50.018;20.010;2023-11-21T04:22:26;97998.76;;;8.04;100.00
23899;BME280;20544;50.018;20.010;2023-11-21T04:25:43;97997.95;;;8.04;100.00
23899;BME280;20544;50.018;20.010;2023-11-21T04:29:02;98003.58;;;8.01;100.00
23899;BME280;20544;50.018;20.010;2023-11-21T04:32:19;97995.47;;;8.02;100.00
23899;BME280;20544;50.018;20.010;2023-11-21T04:35:36;98004.42;;;8.01;100.00
23899;BME280;20544;50.018;20.010;2023-11-21T04:38:53;98010.86;;;7.99;100.00
23899;BME280;20544;50.018;20.010;2023-11-21T04:42:10;98014.15;;;8.01;100.00
23899;BME280;20544;50.018;20.010;2023-11-21T04:45:27;98015.79;;;8.02;100.00
23899;BME280;20544;50.018;20.010;2023-11-21T04:48:44;98017.24;;;8.04;100.00
23899;BME280;20544;50.018;20.010;2023-11-21T04:52:01;98025.55;;;8.01;100.00
23899;BME280;20544;50.018;20.010;2023-11-21T04:55:18;98022.27;;;7.99;100.00
23899;BME280;20544;50.018;20.010;2023-11-21T04:58:37;98023.91;;;8.00;100.00
23899;BME280;20544;50.018;20.010;2023-11-21T05:01:55;98022.27;;;7.99;100.00
23899;BME280;20544;50.018;20.010;2023-11-21T05:05:13;98023.91;;;8.00;100.00
23899;BME280;20544;50.018;20.010;2023-11-21T05:08:30;98028.54;;;7.98;100.00
23899;BME280;20544;50.018;20.010;2023-11-21T05:11:47;98034.74;;;7.90;100.00
23899;BME280;20544;50.018;20.010;2023-11-21T05:15:07;98035.73;;;7.89;100.00
23899;BME280;20544;50.018;20.010;2023-11-21T05:18:27;98031.11;;;7.91;100.00
23899;BME280;20544;50.018;20.010;2023-11-21T05:21:44;98037.73;;;7.87;100.00
23899;BME280;20544;50.018;20.010;2023-11-21T05:25:01;98043.12;;;7.79;100.00
23899;BME280;20544;50.018;20.010;2023-11-21T05:28:18;98042.20;;;7.72;100.00
23899;BME280;20544;50.018;20.010;2023-11-21T05:31:36;98050.05;;;7.80;100.00
23899;BME280;20544;50.018;20.010;2023-11-21T05:34:55;98048.75;;;7.76;100.00
23899;BME280;20544;50.018;20.010;2023-11-21T05:38:12;98057.97;;;7.80;100.00
23899;BME280;20544;50.018;20.010;2023-11-21T05:41:31;98067.50;;;7.81;100.00
23899;BME280;20544;50.018;20.010;2023-11-21T05:44:48;98068.53;;;7.80;100.00
23899;BME280;20544;50.018;20.010;2023-11-21T05:48:05;98080.70;;;7.81;100.00
23899;BME280;20544;50.018;20.010;2023-11-21T05:51:22;98070.14;;;7.81;100.00
23899;BME280;20544;50.018;20.010;2023-11-21T05:54:39;98079.09;;;7.80;100.00
23899;BME280;20544;50.018;20.010;2023-11-21T05:57:57;98083.53;;;7.80;100.00
23899;BME280;20544;50.018;20.010;2023-11-21T06:01:14;98084.90;;;7.75;100.00
23899;BME280;20544;50.018;20.010;2023-11-21T06:04:31;98093.63;;;7.76;100.00
23899;BME280;20544;50.018;20.010;2023-11-21T06:07:48;98088.34;;;7.76;100.00
23899;BME280;20544;50.018;20.010;2023-11-21T06:11:08;98090.64;;;7.79;100.00
23899;BME280;20544;50.018;20.010;2023-11-21T06:14:26;98102.38;;;7.76;100.00
23899;BME280;20544;50.018;20.010;2023-11-21T06:17:45;98105.02;;;7.76;100.00
23899;BME280;20544;50.018;20.010;2023-11-21T06:21:02;98099.55;;;7.78;100.00
23899;BME280;20544;50.018;20.010;2023-11-21T06:24:20;98107.28;;;7.80;100.00
23899;BME280;20544;50.018;20.010;2023-11-21T06:27:39;98101.55;;;7.76;100.00
23899;BME280;20544;50.018;20.010;2023-11-21T06:30:57;98107.66;;;7.76;100.00
23899;BME280;20544;50.018;20.010;2023-11-21T06:34:15;98112.94;;;7.76;100.00
23899;BME280;20544;50.018;20.010;2023-11-21T06:37:32;98110.11;;;7.78;100.00
23899;BME280;20544;50.018;20.010;2023-11-21T06:40:50;98119.03;;;7.77;100.00
23899;BME280;20544;50.018;20.010;2023-11-21T06:44:11;98120.02;;;7.76;100.00
23899;BME280;20544;50.018;20.010;2023-11-21T06:47:29;98131.05;;;7.80;100.00
23899;BME280;20544;50.018;20.010;2023-11-21T06:50:47;98130.05;;;7.81;100.00
23899;BME280;20544;50.018;20.010;2023-11-21T06:54:05;98131.23;;;7.78;100.00
23899;BME280;20544;50.018;20.010;2023-11-21T06:57:26;98131.77;;;7.73;100.00
23899;BME280;20544;50.018;20.010;2023-11-21T07:00:43;98127.59;;;7.79;100.00
23899;BME280;20544;50.018;20.010;2023-11-21T07:04:02;98130.86;;;7.81;100.00
23899;BME280;20544;50.018;20.010;2023-11-21T07:07:20;98129.06;;;7.82;100.00
23899;BME280;20544;50.018;20.010;2023-11-21T07:10:41;98135.52;;;7.79;100.00
23899;BME280;20544;50.018;20.010;2023-11-21T07:13:58;98137.97;;;7.81;100.00
23899;BME280;20544;50.018;20.010;2023-11-21T07:17:19;98144.37;;;7.86;100.00
23899;BME280;20544;50.018;20.010;2023-11-21T07:20:37;98150.80;;;7.84;100.00
23899;BME280;20544;50.018;20.010;2023-11-21T07:23:54;98145.98;;;7.87;100.00
23899;BME280;20544;50.018;20.010;2023-11-21T07:27:11;98149.46;;;7.88;100.00
23899;BME280;20544;50.018;20.010;2023-11-21T07:30:29;98155.73;;;7.87;100.00
23899;BME280;20544;50.018;20.010;2023-11-21T07:33:47;98150.92;;;7.90;100.00
23899;BME280;20544;50.018;20.010;2023-11-21T07:37:07;98156.73;;;7.86;100.00
23899;BME280;20544;50.018;20.010;2023-11-21T07:40:24;98159.49;;;7.92;100.00
23899;BME280;20544;50.018;20.010;2023-11-21T07:43:42;98162.48;;;7.89;100.00
23899;BME280;20544;50.018;20.010;2023-11-21T07:47:02;98167.57;;;7.91;100.00
23899;BME280;20544;50.018;20.010;2023-11-21T07:50:20;98161.02;;;7.87;100.00
23899;BME280;20544;50.018;20.010;2023-11-21T07:53:37;98165.39;;;7.94;100.00
23899;BME280;20544;50.018;20.010;2023-11-21T07:56:54;98159.49;;;7.92;100.00
23899;BME280;20544;50.018;20.010;2023-11-21T08:00:14;98165.77;;;7.91;100.00
23899;BME280;20544;50.018;20.010;2023-11-21T08:03:34;98165.77;;;7.91;100.00
23899;BME280;20544;50.018;20.010;2023-11-21T08:06:51;98162.13;;;7.92;100.00
23899;BME280;20544;50.018;20.010;2023-11-21T08:10:10;98171.52;;;7.95;100.00
23899;BME280;20544;50.018;20.010;2023-11-21T08:13:31;98168.69;;;7.97;100.00
23899;BME280;20544;50.018;20.010;2023-11-21T08:16:56;98178.88;;;8.00;100.00
23899;BME280;20544;50.018;20.010;2023-11-21T08:20:15;98176.39;;;7.83;100.00
23899;BME280;20544;50.018;20.010;2023-11-21T08:23:32;98176.33;;;7.91;100.00
23899;BME280;20544;50.018;20.010;2023-11-21T08:26:49;98177.98;;;7.92;100.00
23899;BME280;20544;50.018;20.010;2023-11-21T08:30:10;98173.31;;;7.94;100.00
23899;BME280;20544;50.018;20.010;2023-11-21T08:33:28;98178.23;;;7.83;100.00
23899;BME280;20544;50.018;20.010;2023-11-21T08:36:46;98172.77;;;7.84;100.00
23899;BME280;20544;50.018;20.010;2023-11-21T08:40:06;98184.13;;;7.85;100.00
23899;BME280;20544;50.018;20.010;2023-11-21T08:43:26;98193.51;;;7.87;100.00
23899;BME280;20544;50.018;20.010;2023-11-21T08:46:44;98180.96;;;7.89;100.00
23899;BME280;20544;50.018;20.010;2023-11-21T08:50:01;98192.05;;;7.85;100.00
23899;BME280;20544;50.018;20.010;2023-11-21T08:53:18;98196.15;;;7.87;100.00
23899;BME280;20544;50.018;20.010;2023-11-21T08:56:35;98194.97;;;7.90;100.00
23899;BME280;20544;50.018;20.010;2023-11-21T08:59:52;98199.72;;;7.94;100.00
23899;BME280;20544;50.018;20.010;2023-11-21T09:03:10;98196.09;;;7.96;100.00
23899;BME280;20544;50.018;20.010;2023-11-21T09:06:27;98198.55;;;7.97;100.00
23899;BME280;20544;50.018;20.010;2023-11-21T09:09:45;98195.38;;;8.02;100.00
23899;BME280;20544;50.018;20.010;2023-11-21T09:13:02;98193.01;;;8.07;100.00
23899;BME280;20544;50.018;20.010;2023-11-21T09:16:20;98193.66;;;8.09;100.00
23899;BME280;20544;50.018;20.010;2023-11-21T09:19:40;98192.10;;;8.15;100.00
23899;BME280;20544;50.018;20.010;2023-11-21T09:22:59;98193.56;;;8.17;100.00
23899;BME280;20544;50.018;20.010;2023-11-21T09:26:17;98196.85;;;8.19;100.00
23899;BME280;20544;50.018;20.010;2023-11-21T09:29:34;98193.03;;;8.22;100.00
23899;BME280;20544;50.018;20.010;2023-11-21T09:32:51;98190.04;;;8.25;100.00
23899;BME280;20544;50.018;20.010;2023-11-21T09:36:13;98189.66;;;8.28;100.00
23899;BME280;20544;50.018;20.010;2023-11-21T09:39:31;98194.14;;;8.28;100.00
23899;BME280;20544;50.018;20.010;2023-11-21T09:42:54;98194.48;;;8.24;100.00
23899;BME280;20544;50.018;20.010;2023-11-21T09:46:14;98192.11;;;8.30;100.00
23899;BME280;20544;50.018;20.010;2023-11-21T09:49:35;98193.41;;;8.34;100.00
23899;BME280;20544;50.018;20.010;2023-11-21T09:53:02;98197.67;;;8.35;100.00
23899;BME280;20544;50.018;20.010;2023-11-21T09:56:24;98196.05;;;8.34;100.00
23899;BME280;20544;50.018;20.010;2023-11-21T09:59:45;98199.50;;;8.34;100.00
23899;BME280;20544;50.018;20.010;2023-11-21T10:03:07;98200.77;;;8.38;100.00
23899;BME280;20544;50.018;20.010;2023-11-21T10:06:26;98200.96;;;8.37;100.00
23899;BME280;20544;50.018;20.010;2023-11-21T10:09:46;98200.77;;;8.38;100.00
23899;BME280;20544;50.018;20.010;2023-11-21T10:13:05;98209.89;;;8.36;100.00
23899;BME280;20544;50.018;20.010;2023-11-21T10:16:26;98204.05;;;8.25;100.00
23899;BME280;20544;50.018;20.010;2023-11-21T10:19:47;98205.52;;;8.28;100.00
23899;BME280;20544;50.018;20.010;2023-11-21T10:23:06;98207.16;;;8.29;100.00
23899;BME280;20544;50.018;20.010;2023-11-21T10:26:28;98204.33;;;8.31;100.00
23899;BME280;20544;50.018;20.010;2023-11-21T10:29:49;98212.98;;;8.39;100.00
23899;BME280;20544;50.018;20.010;2023-11-21T10:33:08;98204.02;;;8.49;100.00
23899;BME280;20544;50.018;20.010;2023-11-21T10:36:29;98206.55;;;8.57;100.00
23899;BME280;20544;50.018;20.010;2023-11-21T10:39:49;98188.31;;;8.62;100.00
23899;BME280;20544;50.018;20.010;2023-11-21T10:43:10;98191.25;;;8.67;100.00
23899;BME280;20544;50.018;20.010;2023-11-21T10:46:29;98192.70;;;8.70;100.00
23899;BME280;20544;50.018;20.010;2023-11-21T10:49:46;98189.03;;;8.71;100.00
23899;BME280;20544;50.018;20.010;2023-11-21T10:53:06;98197.70;;;8.65;100.00
23899;BME280;20544;50.018;20.010;2023-11-21T10:56:26;98201.72;;;8.61;100.00
23899;BME280;20544;50.018;20.010;2023-11-21T10:59:47;98203.37;;;8.62;100.00
23899;BME280;20544;50.018;20.010;2023-11-21T11:03:06;98201.18;;;8.65;100.00
23899;BME280;20544;50.018;20.010;2023-11-21T11:06:26;98198.34;;;8.67;100.00
23899;BME280;20544;50.018;20.010;2023-11-21T11:09:46;98205.02;;;8.63;100.00
23899;BME280;20544;50.018;20.010;2023-11-21T11:13:03;98198.62;;;8.57;100.00
23899;BME280;20544;50.018;20.010;2023-11-21T11:16:23;98206.82;;;8.47;100.00
23899;BME280;20544;50.018;20.010;2023-11-21T11:19:41;98203.64;;;8.52;100.00
23899;BME280;20544;50.018;20.010;2023-11-21T11:23:13;98200.80;;;8.53;100.00
23899;BME280;20544;50.018;20.010;2023-11-21T11:26:42;98200.00;;;8.53;100.00
23899;BME280;20544;50.018;20.010;2023-11-21T11:30:07;98204.48;;;8.52;100.00
23899;BME280;20544;50.018;20.010;2023-11-21T11:33:34;98210.77;;;8.51;100.00
23899;BME280;20544;50.018;20.010;2023-11-21T11:36:57;98208.47;;;8.48;100.00
23899;BME280;20544;50.018;20.010;2023-11-21T11:40:20;98212.56;;;8.51;100.00
23899;BME280;20544;50.018;20.010;2023-11-21T11:43:40;98208.27;;;8.50;100.00
23899;BME280;20544;50.018;20.010;2023-11-21T11:46:58;98210.19;;;8.56;100.00
23899;BME280;20544;50.018;20.010;2023-11-21T11:50:20;98210.03;;;8.57;100.00
23899;BME280;20544;50.018;20.010;2023-11-21T11:53:37;98216.96;;;8.58;100.00
23899;BME280;20544;50.018;20.010;2023-11-21T11:56:56;98222.87;;;8.61;100.00
23899;BME280;20544;50.018;20.010;2023-11-21T12:00:17;98224.13;;;8.65;100.00
23899;BME280;20544;50.018;20.010;2023-11-21T12:03:35;98230.91;;;8.67;100.00
23899;BME280;20544;50.018;20.010;2023-11-21T12:06:54;98225.43;;;8.69;100.00
23899;BME280;20544;50.018;20.010;2023-11-21T12:10:17;98232.91;;;8.65;100.00
23899;BME280;20544;50.018;20.010;2023-11-21T12:13:37;98225.43;;;8.69;100.00
23899;BME280;20544;50.018;20.010;2023-11-21T12:16:55;98221.86;;;8.77;100.00
23899;BME280;20544;50.018;20.010;2023-11-21T12:20:15;98221.13;;;8.83;100.00
23899;BME280;20544;50.018;20.010;2023-11-21T12:23:36;98221.67;;;8.78;100.00
23899;BME280;20544;50.018;20.010;2023-11-21T12:26:55;98218.48;;;8.83;100.00
23899;BME280;20544;50.018;20.010;2023-11-21T12:30:14;98219.59;;;8.88;100.00
23899;BME280;20544;50.018;20.010;2023-11-21T12:33:32;98216.75;;;8.90;100.00
23899;BME280;20544;50.018;20.010;2023-11-21T12:36:50;98219.75;;;8.87;100.00
23899;BME280;20544;50.018;20.010;2023-11-21T12:40:10;98224.69;;;8.90;100.00
23899;BME280;20544;50.018;20.010;2023-11-21T12:43:27;98226.33;;;8.91;100.00
23899;BME280;20544;50.018;20.010;2023-11-21T12:46:47;98222.04;;;8.90;100.00
23899;BME280;20544;50.018;20.010;2023-11-21T12:50:07;98222.58;;;8.85;100.00
23899;BME280;20544;50.018;20.010;2023-11-21T12:53:26;98222.97;;;8.82;100.00
23899;BME280;20544;50.018;20.010;2023-11-21T12:56:48;98226.23;;;8.84;100.00
23899;BME280;20544;50.018;20.010;2023-11-21T13:00:08;98229.13;;;8.89;100.00
23899;BME280;20544;50.018;20.010;2023-11-21T13:03:29;98233.42;;;8.90;100.00
23899;BME280;20544;50.018;20.010;2023-11-21T13:06:47;98227.13;;;8.92;100.00
23899;BME280;20544;50.018;20.010;2023-11-21T13:13:21;98231.78;;;8.89;100.00
23899;BME280;20544;50.018;20.010;2023-11-21T13:16:38;98233.35;;;8.84;100.00
23899;BME280;20544;50.018;20.010;2023-11-21T13:19:56;98232.52;;;8.83;100.00
23899;BME280;20544;50.018;20.010;2023-11-21T13:23:15;98235.35;;;8.82;100.00
23899;BME280;20544;50.018;20.010;2023-11-21T13:26:32;98237.00;;;8.83;100.00
23899;BME280;20544;50.018;20.010;2023-11-21T13:29:50;98239.26;;;8.86;100.00
23899;BME280;20544;50.018;20.010;2023-11-21T13:33:08;98245.28;;;8.80;100.00
23899;BME280;20544;50.018;20.010;2023-11-21T13:36:28;98257.88;;;8.78;100.00
23899;BME280;20544;50.018;20.010;2023-11-21T13:39:46;98257.23;;;8.76;100.00
23899;BME280;20544;50.018;20.010;2023-11-21T13:43:04;98261.14;;;8.80;100.00
23899;BME280;20544;50.018;20.010;2023-11-21T13:46:21;98255.50;;;8.83;100.00
23899;BME280;20544;50.018;20.010;2023-11-21T13:49:41;98262.79;;;8.81;100.00
23899;BME280;20544;50.018;20.010;2023-11-21T13:52:59;98257.88;;;8.78;100.00
23899;BME280;20544;50.018;20.010;2023-11-21T13:56:19;98257.42;;;8.74;100.00
23899;BME280;20544;50.018;20.010;2023-11-21T13:59:38;98264.90;;;8.70;100.00
23899;BME280;20544;50.018;20.010;2023-11-21T14:02:55;98267.81;;;8.61;100.00
23899;BME280;20544;50.018;20.010;2023-11-21T14:06:15;98272.82;;;8.55;100.00
23899;BME280;20544;50.018;20.010;2023-11-21T14:09:34;98268.34;;;8.56;100.00
23899;BME280;20544;50.018;20.010;2023-11-21T14:12:53;98269.06;;;8.50;100.00
23899;BME280;20544;50.018;20.010;2023-11-21T14:16:10;98269.72;;;8.52;100.00
23899;BME280;20544;50.018;20.010;2023-11-21T14:19:27;98278.30;;;8.54;100.00
23899;BME280;20544;50.018;20.010;2023-11-21T14:22:46;98275.19;;;8.50;100.00
23899;BME280;20544;50.018;20.010;2023-11-21T14:26:04;98274.54;;;8.48;100.00
23899;BME280;20544;50.018;20.010;2023-11-21T14:29:22;98275.69;;;8.46;100.00
